UKWW/VIN METAR and TAF weather

Enter ICAO airport designator
Station Type Date Time Source
UKWW METAR 2020/11/28 18:00 UTC NOAA

UKWW 281800Z 21002MPS 9000 BKN022 01/M00 Q1017 R31/290055 NOSIG


Station Type Date Time Source
UKWW Decoded METAR 2020/11/28 18:00 UTC NOAA

Station name not available
Nov 28, 2020 - 01:00 PM EST / 2020.11.28 1800 UTC
Wind: from the SSW (210 degrees) at 4 MPH (4 KT):0
Visibility: 5 mile(s):0
Sky conditions: mostly cloudy
Temperature: 33 F (1 C)
Dew Point: 32 F (0 C)
Relative Humidity: 93%
Pressure (altimeter): 30.03 in. Hg (1017 hPa)
ob: UKWW 281800Z 21002MPS 9000 BKN022 01/M00 Q1017 R31/290055 NOSIG
cycle: 18

Station Type Date Time Source
UKWW TAF 2010/03/21 10:45 UTC NOAA

TAF UKWW 211045Z 2112/2212 24005G10MPS 9999 SCT020 BKN070
TEMPO 2115/2207 1400 -SHRA BR SCT004 BKN007CB
FM220700 34007G12MPS 9999 SCT015 BKN100 TX11/2112Z TN01/2204Z

Example: see airport list